sensor_id;sensor_type;location;lat;lon;timestamp;pressure;altitude;pressure_sealevel;temperature;humidity
22241;BME280;11289;52.524;13.694;2024-01-27T00:01:39;101837.69;;;4.23;81.21
22241;BME280;11289;52.524;13.694;2024-01-27T00:04:05;101845.34;;;4.21;81.03
22241;BME280;11289;52.524;13.694;2024-01-27T00:06:31;101832.94;;;4.18;80.44
22241;BME280;11289;52.524;13.694;2024-01-27T00:08:57;101847.00;;;4.22;81.07
22241;BME280;11289;52.524;13.694;2024-01-27T00:11:23;101852.78;;;4.20;80.15
22241;BME280;11289;52.524;13.694;2024-01-27T00:13:52;101839.84;;;4.21;80.30
22241;BME280;11289;52.524;13.694;2024-01-27T00:16:18;101840.09;;;4.19;79.60
22241;BME280;11289;52.524;13.694;2024-01-27T00:18:44;101846.16;;;4.21;79.92
22241;BME280;11289;52.524;13.694;2024-01-27T00:21:10;101850.59;;;4.22;79.88
22241;BME280;11289;52.524;13.694;2024-01-27T00:23:35;101847.84;;;4.22;79.54
22241;BME280;11289;52.524;13.694;2024-01-27T00:26:02;101859.97;;;4.26;78.91
22241;BME280;11289;52.524;13.694;2024-01-27T00:28:28;101871.50;;;4.23;79.74
22241;BME280;11289;52.524;13.694;2024-01-27T00:30:54;101861.84;;;4.21;79.68
22241;BME280;11289;52.524;13.694;2024-01-27T00:33:21;101870.97;;;4.26;79.49
22241;BME280;11289;52.524;13.694;2024-01-27T00:35:47;101869.81;;;4.22;78.73
22241;BME280;11289;52.524;13.694;2024-01-27T00:38:13;101859.34;;;4.19;78.93
22241;BME280;11289;52.524;13.694;2024-01-27T00:40:40;101870.09;;;4.21;78.81
22241;BME280;11289;52.524;13.694;2024-01-27T00:43:06;101865.94;;;4.18;79.20
22241;BME280;11289;52.524;13.694;2024-01-27T00:45:32;101868.94;;;4.16;79.09
22241;BME280;11289;52.524;13.694;2024-01-27T00:47:58;101866.72;;;4.13;78.96
22241;BME280;11289;52.524;13.694;2024-01-27T00:50:23;101858.16;;;4.10;79.09
22241;BME280;11289;52.524;13.694;2024-01-27T00:52:49;101875.22;;;4.12;78.81
22241;BME280;11289;52.524;13.694;2024-01-27T00:55:15;101861.72;;;4.10;78.98
22241;BME280;11289;52.524;13.694;2024-01-27T00:57:43;101870.75;;;4.06;78.61
22241;BME280;11289;52.524;13.694;2024-01-27T01:00:10;101875.16;;;4.07;78.54
22241;BME280;11289;52.524;13.694;2024-01-27T01:02:36;101872.91;;;4.04;77.58
22241;BME280;11289;52.524;13.694;2024-01-27T01:05:03;101877.31;;;4.05;78.59
22241;BME280;11289;52.524;13.694;2024-01-27T01:07:30;101876.75;;;4.03;78.45
22241;BME280;11289;52.524;13.694;2024-01-27T01:09:56;101878.41;;;4.04;78.44
22241;BME280;11289;52.524;13.694;2024-01-27T01:12:22;101891.56;;;4.01;78.02
22241;BME280;11289;52.524;13.694;2024-01-27T01:14:48;101893.16;;;3.97;77.98
22241;BME280;11289;52.524;13.694;2024-01-27T01:17:14;101897.59;;;3.98;78.41
22241;BME280;11289;52.524;13.694;2024-01-27T01:19:40;101904.25;;;4.03;77.98
22241;BME280;11289;52.524;13.694;2024-01-27T01:22:07;101900.38;;;4.04;78.17
22241;BME280;11289;52.524;13.694;2024-01-27T01:24:33;101907.56;;;4.05;78.05
22241;BME280;11289;52.524;13.694;2024-01-27T01:26:59;101887.75;;;4.03;78.27
22241;BME280;11289;52.524;13.694;2024-01-27T01:29:25;101895.47;;;4.06;78.07
22241;BME280;11289;52.524;13.694;2024-01-27T01:31:52;101890.53;;;4.08;77.78
22241;BME280;11289;52.524;13.694;2024-01-27T01:34:18;101897.72;;;4.09;77.92
22241;BME280;11289;52.524;13.694;2024-01-27T01:36:44;101906.53;;;4.11;77.69
22241;BME280;11289;52.524;13.694;2024-01-27T01:39:11;101910.13;;;4.11;76.88
22241;BME280;11289;52.524;13.694;2024-01-27T01:41:39;101915.03;;;4.09;77.35
22241;BME280;11289;52.524;13.694;2024-01-27T01:44:05;101913.13;;;4.10;77.26
22241;BME280;11289;52.524;13.694;2024-01-27T01:46:32;101912.53;;;4.08;76.96
22241;BME280;11289;52.524;13.694;2024-01-27T01:48:58;101904.56;;;4.06;77.21
22241;BME280;11289;52.524;13.694;2024-01-27T01:51:26;101917.47;;;4.06;77.28
22241;BME280;11289;52.524;13.694;2024-01-27T01:53:56;101908.97;;;4.07;77.21
22241;BME280;11289;52.524;13.694;2024-01-27T01:56:23;101908.06;;;4.01;77.00
22241;BME280;11289;52.524;13.694;2024-01-27T01:58:49;101913.00;;;3.99;76.46
22241;BME280;11289;52.524;13.694;2024-01-27T02:01:17;101917.38;;;4.00;76.89
22241;BME280;11289;52.524;13.694;2024-01-27T02:03:55;101916.81;;;3.98;76.95
22241;BME280;11289;52.524;13.694;2024-01-27T02:06:22;101925.59;;;3.95;77.29
22241;BME280;11289;52.524;13.694;2024-01-27T02:08:48;101928.34;;;3.95;77.12
22241;BME280;11289;52.524;13.694;2024-01-27T02:11:14;101925.31;;;3.97;77.19
22241;BME280;11289;52.524;13.694;2024-01-27T02:13:40;101922.59;;;3.97;76.81
22241;BME280;11289;52.524;13.694;2024-01-27T02:16:06;101925.59;;;3.95;76.94
22241;BME280;11289;52.524;13.694;2024-01-27T02:18:32;101936.59;;;3.95;76.88
22241;BME280;11289;52.524;13.694;2024-01-27T02:20:58;101938.22;;;3.96;77.22
22241;BME280;11289;52.524;13.694;2024-01-27T02:23:24;101937.09;;;3.92;77.29
22241;BME280;11289;52.524;13.694;2024-01-27T02:25:50;101945.59;;;3.91;77.60
22241;BME280;11289;52.524;13.694;2024-01-27T02:28:17;101931.84;;;3.91;77.98
22241;BME280;11289;52.524;13.694;2024-01-27T02:30:43;101948.09;;;3.92;78.07
22241;BME280;11289;52.524;13.694;2024-01-27T02:33:09;101940.91;;;3.91;78.05
22241;BME280;11289;52.524;13.694;2024-01-27T02:35:35;101938.69;;;3.88;78.00
22241;BME280;11289;52.524;13.694;2024-01-27T02:38:00;101946.91;;;3.88;77.99
22241;BME280;11289;52.524;13.694;2024-01-27T02:40:26;101938.09;;;3.86;78.12
22241;BME280;11289;52.524;13.694;2024-01-27T02:42:52;101947.44;;;3.85;78.32
22241;BME280;11289;52.524;13.694;2024-01-27T02:45:18;101951.75;;;3.81;78.12
22241;BME280;11289;52.524;13.694;2024-01-27T02:47:44;101955.69;;;3.85;78.29
22241;BME280;11289;52.524;13.694;2024-01-27T02:50:10;101949.78;;;3.76;78.96
22241;BME280;11289;52.524;13.694;2024-01-27T02:52:36;101968.81;;;3.83;78.91
22241;BME280;11289;52.524;13.694;2024-01-27T02:55:03;101962.16;;;3.79;78.95
22241;BME280;11289;52.524;13.694;2024-01-27T02:57:29;101945.09;;;3.77;79.03
22241;BME280;11289;52.524;13.694;2024-01-27T02:59:55;101964.34;;;3.77;79.41
22241;BME280;11289;52.524;13.694;2024-01-27T03:02:21;101967.66;;;3.79;79.58
22241;BME280;11289;52.524;13.694;2024-01-27T03:04:47;101973.41;;;3.77;79.94
22241;BME280;11289;52.524;13.694;2024-01-27T03:07:13;101976.91;;;3.73;80.07
22241;BME280;11289;52.524;13.694;2024-01-27T03:09:39;101978.34;;;3.75;80.12
22241;BME280;11289;52.524;13.694;2024-01-27T03:12:05;101982.16;;;3.74;80.46
22241;BME280;11289;52.524;13.694;2024-01-27T03:14:31;101986.56;;;3.75;80.89
22241;BME280;11289;52.524;13.694;2024-01-27T03:16:58;101986.06;;;3.78;80.52
22241;BME280;11289;52.524;13.694;2024-01-27T03:19:24;101991.56;;;3.78;80.72
22241;BME280;11289;52.524;13.694;2024-01-27T03:21:50;102005.03;;;3.80;80.82
22241;BME280;11289;52.524;13.694;2024-01-27T03:24:16;101996.81;;;3.80;81.04
22241;BME280;11289;52.524;13.694;2024-01-27T03:26:42;102003.38;;;3.79;81.04
22241;BME280;11289;52.524;13.694;2024-01-27T03:29:08;101996.91;;;3.85;81.38
22241;BME280;11289;52.524;13.694;2024-01-27T03:31:34;101994.31;;;3.78;81.11
22241;BME280;11289;52.524;13.694;2024-01-27T03:34:00;102008.81;;;3.91;80.51
22241;BME280;11289;52.524;13.694;2024-01-27T03:36:27;102000.88;;;3.94;80.93
22241;BME280;11289;52.524;13.694;2024-01-27T03:38:53;102001.38;;;3.91;80.50
22241;BME280;11289;52.524;13.694;2024-01-27T03:41:20;102003.63;;;3.94;80.55
22241;BME280;11289;52.524;13.694;2024-01-27T03:43:45;102011.84;;;3.94;80.54
22241;BME280;11289;52.524;13.694;2024-01-27T03:46:11;102007.78;;;3.97;80.44
22241;BME280;11289;52.524;13.694;2024-01-27T03:48:37;102000.63;;;3.96;79.65
22241;BME280;11289;52.524;13.694;2024-01-27T03:51:03;101999.19;;;3.93;79.71
22241;BME280;11289;52.524;13.694;2024-01-27T03:53:29;101999.19;;;3.93;80.34
22241;BME280;11289;52.524;13.694;2024-01-27T03:55:56;102020.66;;;3.96;80.04
22241;BME280;11289;52.524;13.694;2024-01-27T03:58:28;102017.34;;;3.94;80.05
22241;BME280;11289;52.524;13.694;2024-01-27T04:00:54;101995.53;;;3.88;80.36
22241;BME280;11289;52.524;13.694;2024-01-27T04:03:20;102002.38;;;3.85;80.52
22241;BME280;11289;52.524;13.694;2024-01-27T04:05:46;102015.38;;;3.90;80.72
22241;BME280;11289;52.524;13.694;2024-01-27T04:08:12;102024.69;;;3.89;80.76
22241;BME280;11289;52.524;13.694;2024-01-27T04:10:38;102018.03;;;3.84;80.47
22241;BME280;11289;52.524;13.694;2024-01-27T04:13:04;102031.50;;;3.86;80.39
22241;BME280;11289;52.524;13.694;2024-01-27T04:15:32;102035.88;;;3.82;80.29
22241;BME280;11289;52.524;13.694;2024-01-27T04:17:58;102047.09;;;3.80;81.23
22241;BME280;11289;52.524;13.694;2024-01-27T04:20:24;102060.81;;;3.80;81.04
22241;BME280;11289;52.524;13.694;2024-01-27T04:22:50;102066.31;;;3.80;81.23
22241;BME280;11289;52.524;13.694;2024-01-27T04:25:16;102071.00;;;3.80;81.51
22241;BME280;11289;52.524;13.694;2024-01-27T04:27:42;102060.75;;;3.75;81.30
22241;BME280;11289;52.524;13.694;2024-01-27T04:30:08;102074.25;;;3.77;81.96
22241;BME280;11289;52.524;13.694;2024-01-27T04:32:35;102083.06;;;3.79;81.88
22241;BME280;11289;52.524;13.694;2024-01-27T04:35:01;102092.66;;;3.76;81.68
22241;BME280;11289;52.524;13.694;2024-01-27T04:37:28;102088.78;;;3.77;81.62
22241;BME280;11289;52.524;13.694;2024-01-27T04:39:54;102092.41;;;3.78;81.72
22241;BME280;11289;52.524;13.694;2024-01-27T04:42:20;102102.53;;;3.77;82.19
22241;BME280;11289;52.524;13.694;2024-01-27T04:44:46;102110.53;;;3.79;82.09
22241;BME280;11289;52.524;13.694;2024-01-27T04:47:12;102114.94;;;3.80;82.13
22241;BME280;11289;52.524;13.694;2024-01-27T04:49:38;102108.88;;;3.78;82.39
22241;BME280;11289;52.524;13.694;2024-01-27T04:52:04;102115.19;;;3.78;82.32
22241;BME280;11289;52.524;13.694;2024-01-27T04:54:31;102119.13;;;3.82;82.44
22241;BME280;11289;52.524;13.694;2024-01-27T04:56:57;102117.69;;;3.80;82.76
22241;BME280;11289;52.524;13.694;2024-01-27T04:59:23;102125.13;;;3.79;82.45
22241;BME280;11289;52.524;13.694;2024-01-27T05:01:50;102124.28;;;3.79;82.80
22241;BME280;11289;52.524;13.694;2024-01-27T05:04:16;102124.28;;;3.79;82.20
22241;BME280;11289;52.524;13.694;2024-01-27T05:06:45;102131.44;;;3.80;82.52
22241;BME280;11289;52.524;13.694;2024-01-27T05:09:11;102138.59;;;3.81;82.49
22241;BME280;11289;52.524;13.694;2024-01-27T05:11:37;102135.75;;;3.76;82.42
22241;BME280;11289;52.524;13.694;2024-01-27T05:14:04;102152.34;;;3.81;82.37
22241;BME280;11289;52.524;13.694;2024-01-27T05:16:30;102159.75;;;3.80;82.63
22241;BME280;11289;52.524;13.694;2024-01-27T05:18:57;102157.16;;;3.74;82.38
22241;BME280;11289;52.524;13.694;2024-01-27T05:21:23;102148.19;;;3.78;82.67
22241;BME280;11289;52.524;13.694;2024-01-27T05:23:49;102162.41;;;3.75;82.66
22241;BME280;11289;52.524;13.694;2024-01-27T05:26:15;102160.50;;;3.76;83.24
22241;BME280;11289;52.524;13.694;2024-01-27T05:28:41;102162.66;;;3.74;83.19
22241;BME280;11289;52.524;13.694;2024-01-27T05:31:07;102167.09;;;3.75;83.28
22241;BME280;11289;52.524;13.694;2024-01-27T05:33:38;102168.16;;;3.74;83.02
22241;BME280;11289;52.524;13.694;2024-01-27T05:36:05;102166.47;;;3.73;82.85
22241;BME280;11289;52.524;13.694;2024-01-27T05:38:31;102151.56;;;3.69;83.18
22241;BME280;11289;52.524;13.694;2024-01-27T05:41:00;102161.47;;;3.70;83.74
22241;BME280;11289;52.524;13.694;2024-01-27T05:43:27;102171.16;;;3.72;83.81
22241;BME280;11289;52.524;13.694;2024-01-27T05:45:53;102166.16;;;3.69;84.16
22241;BME280;11289;52.524;13.694;2024-01-27T05:48:19;102167.22;;;3.68;83.82
22241;BME280;11289;52.524;13.694;2024-01-27T05:50:58;102179.88;;;3.69;84.05
22241;BME280;11289;52.524;13.694;2024-01-27T05:53:24;102188.47;;;3.73;83.83
22241;BME280;11289;52.524;13.694;2024-01-27T05:55:51;102184.53;;;3.69;83.76
22241;BME280;11289;52.524;13.694;2024-01-27T05:58:18;102189.63;;;3.77;84.35
22241;BME280;11289;52.524;13.694;2024-01-27T06:00:47;102196.81;;;3.78;83.83
22241;BME280;11289;52.524;13.694;2024-01-27T06:03:14;102187.72;;;3.77;84.16
22241;BME280;11289;52.524;13.694;2024-01-27T06:05:41;102189.06;;;3.75;83.96
22241;BME280;11289;52.524;13.694;2024-01-27T06:08:07;102198.13;;;3.75;84.18
22241;BME280;11289;52.524;13.694;2024-01-27T06:10:34;102214.94;;;3.79;84.39
22241;BME280;11289;52.524;13.694;2024-01-27T06:13:03;102216.63;;;3.80;84.40
22241;BME280;11289;52.524;13.694;2024-01-27T06:15:29;102214.47;;;3.82;84.74
22241;BME280;11289;52.524;13.694;2024-01-27T06:17:55;102220.78;;;3.82;84.43
22241;BME280;11289;52.524;13.694;2024-01-27T06:20:21;102224.97;;;3.85;84.15
22241;BME280;11289;52.524;13.694;2024-01-27T06:22:47;102224.38;;;3.83;84.17
22241;BME280;11289;52.524;13.694;2024-01-27T06:25:13;102232.72;;;3.88;83.97
22241;BME280;11289;52.524;13.694;2024-01-27T06:27:39;102242.97;;;3.93;84.31
22241;BME280;11289;52.524;13.694;2024-01-27T06:30:08;102234.72;;;3.93;84.01
22241;BME280;11289;52.524;13.694;2024-01-27T06:32:35;102242.72;;;3.94;84.31
22241;BME280;11289;52.524;13.694;2024-01-27T06:35:01;102240.56;;;3.96;83.95
22241;BME280;11289;52.524;13.694;2024-01-27T06:37:27;102244.72;;;3.99;84.10
22241;BME280;11289;52.524;13.694;2024-01-27T06:39:53;102243.66;;;4.00;83.79
22241;BME280;11289;52.524;13.694;2024-01-27T06:42:19;102253.59;;;4.01;83.62
22241;BME280;11289;52.524;13.694;2024-01-27T06:44:45;102257.72;;;4.04;83.66
22241;BME280;11289;52.524;13.694;2024-01-27T06:47:11;102261.56;;;4.03;83.29
22241;BME280;11289;52.524;13.694;2024-01-27T06:49:37;102266.81;;;4.04;82.96
22241;BME280;11289;52.524;13.694;2024-01-27T06:52:03;102272.41;;;4.09;83.33
22241;BME280;11289;52.524;13.694;2024-01-27T06:54:29;102276.56;;;4.12;83.42
22241;BME280;11289;52.524;13.694;2024-01-27T06:56:55;102272.41;;;4.09;83.14
22241;BME280;11289;52.524;13.694;2024-01-27T06:59:21;102280.16;;;4.12;83.34
22241;BME280;11289;52.524;13.694;2024-01-27T07:01:48;102290.69;;;4.15;83.12
22241;BME280;11289;52.524;13.694;2024-01-27T07:04:14;102299.25;;;4.19;83.24
22241;BME280;11289;52.524;13.694;2024-01-27T07:06:41;102299.25;;;4.19;83.56
22241;BME280;11289;52.524;13.694;2024-01-27T07:09:07;102302.00;;;4.19;83.17
22241;BME280;11289;52.524;13.694;2024-01-27T07:11:32;102299.75;;;4.16;83.32
22241;BME280;11289;52.524;13.694;2024-01-27T07:13:59;102295.44;;;4.20;83.47
22241;BME280;11289;52.524;13.694;2024-01-27T07:16:25;102292.06;;;4.18;83.07
22241;BME280;11289;52.524;13.694;2024-01-27T07:18:51;102304.88;;;4.24;83.11
22241;BME280;11289;52.524;13.694;2024-01-27T07:21:17;102302.69;;;4.26;83.46
22241;BME280;11289;52.524;13.694;2024-01-27T07:23:44;102302.13;;;4.24;83.41
22241;BME280;11289;52.524;13.694;2024-01-27T07:26:10;102307.13;;;4.27;83.25
22241;BME280;11289;52.524;13.694;2024-01-27T07:28:37;102323.63;;;4.27;82.72
22241;BME280;11289;52.524;13.694;2024-01-27T07:31:04;102326.94;;;4.29;83.21
22241;BME280;11289;52.524;13.694;2024-01-27T07:33:31;102325.25;;;4.28;83.22
22241;BME280;11289;52.524;13.694;2024-01-27T07:35:57;102337.44;;;4.32;83.64
22241;BME280;11289;52.524;13.694;2024-01-27T07:38:23;102334.69;;;4.32;83.37
22241;BME280;11289;52.524;13.694;2024-01-27T07:40:49;102336.94;;;4.35;83.65
22241;BME280;11289;52.524;13.694;2024-01-27T07:43:15;102338.06;;;4.34;83.57
22241;BME280;11289;52.524;13.694;2024-01-27T07:45:41;102349.13;;;4.40;83.67
22241;BME280;11289;52.524;13.694;2024-01-27T07:48:07;102355.13;;;4.36;83.39
22241;BME280;11289;52.524;13.694;2024-01-27T07:50:33;102355.47;;;4.40;83.45
22241;BME280;11289;52.524;13.694;2024-01-27T07:52:59;102365.75;;;4.45;83.10
22241;BME280;11289;52.524;13.694;2024-01-27T07:55:25;102363.25;;;4.43;83.67
22241;BME280;11289;52.524;13.694;2024-01-27T07:57:51;102364.41;;;4.47;84.05
22241;BME280;11289;52.524;13.694;2024-01-27T08:00:17;102360.56;;;4.48;83.84
22241;BME280;11289;52.524;13.694;2024-01-27T08:02:43;102369.19;;;4.52;83.63
22241;BME280;11289;52.524;13.694;2024-01-27T08:05:09;102369.75;;;4.54;83.44
22241;BME280;11289;52.524;13.694;2024-01-27T08:07:35;102357.06;;;4.53;83.55
22241;BME280;11289;52.524;13.694;2024-01-27T08:10:01;102361.25;;;4.56;83.74
22241;BME280;11289;52.524;13.694;2024-01-27T08:12:29;102369.84;;;4.59;83.65
22241;BME280;11289;52.524;13.694;2024-01-27T08:14:55;102363.84;;;4.62;83.26
22241;BME280;11289;52.524;13.694;2024-01-27T08:17:21;102356.94;;;4.60;83.55
22241;BME280;11289;52.524;13.694;2024-01-27T08:19:47;102370.19;;;4.63;83.59
22241;BME280;11289;52.524;13.694;2024-01-27T08:22:13;102373.03;;;4.68;83.48
22241;BME280;11289;52.524;13.694;2024-01-27T08:24:39;102375.88;;;4.73;83.51
22241;BME280;11289;52.524;13.694;2024-01-27T08:27:05;102365.97;;;4.72;83.13
22241;BME280;11289;52.524;13.694;2024-01-27T08:29:31;102379.53;;;4.79;83.15
22241;BME280;11289;52.524;13.694;2024-01-27T08:31:57;102377.38;;;4.81;83.12
22241;BME280;11289;52.524;13.694;2024-01-27T08:34:23;102365.88;;;4.84;83.21
22241;BME280;11289;52.524;13.694;2024-01-27T08:36:52;102370.88;;;4.87;82.91
22241;BME280;11289;52.524;13.694;2024-01-27T08:39:18;102380.31;;;4.91;82.91
22241;BME280;11289;52.524;13.694;2024-01-27T08:41:44;102377.63;;;4.96;82.30
22241;BME280;11289;52.524;13.694;2024-01-27T08:44:10;102369.38;;;4.96;82.73
22241;BME280;11289;52.524;13.694;2024-01-27T08:46:36;102381.56;;;5.00;82.53
22241;BME280;11289;52.524;13.694;2024-01-27T08:49:02;102389.06;;;5.05;82.37
22241;BME280;11289;52.524;13.694;2024-01-27T08:51:28;102393.00;;;5.09;82.20
22241;BME280;11289;52.524;13.694;2024-01-27T08:53:54;102387.72;;;5.08;81.42
22241;BME280;11289;52.524;13.694;2024-01-27T08:56:20;102388.97;;;5.17;81.63
22241;BME280;11289;52.524;13.694;2024-01-27T08:58:46;102399.84;;;5.23;81.88
22241;BME280;11289;52.524;13.694;2024-01-27T09:01:16;102394.72;;;5.32;81.66
22241;BME280;11289;52.524;13.694;2024-01-27T09:03:42;102391.56;;;5.40;80.77
22241;BME280;11289;52.524;13.694;2024-01-27T09:06:08;102405.75;;;5.49;81.11
22241;BME280;11289;52.524;13.694;2024-01-27T09:08:35;102397.47;;;5.49;80.94
22241;BME280;11289;52.524;13.694;2024-01-27T09:11:04;102410.47;;;5.54;79.95
22241;BME280;11289;52.524;13.694;2024-01-27T09:13:30;102409.91;;;5.52;79.86
22241;BME280;11289;52.524;13.694;2024-01-27T09:15:59;102404.72;;;5.55;79.93
22241;BME280;11289;52.524;13.694;2024-01-27T09:18:26;102409.97;;;5.57;80.06
22241;BME280;11289;52.524;13.694;2024-01-27T09:20:52;102421.34;;;5.61;79.90
22241;BME280;11289;52.524;13.694;2024-01-27T09:23:18;102432.69;;;5.64;79.37
22241;BME280;11289;52.524;13.694;2024-01-27T09:25:44;102438.75;;;5.66;80.09
22241;BME280;11289;52.524;13.694;2024-01-27T09:28:10;102437.13;;;5.65;79.57
22241;BME280;11289;52.524;13.694;2024-01-27T09:30:37;102417.22;;;5.63;79.63
22241;BME280;11289;52.524;13.694;2024-01-27T09:33:04;102443.28;;;5.72;79.80
22241;BME280;11289;52.524;13.694;2024-01-27T09:35:30;102448.53;;;5.74;79.33
22241;BME280;11289;52.524;13.694;2024-01-27T09:37:55;102445.13;;;5.67;78.55
22241;BME280;11289;52.524;13.694;2024-01-27T09:40:21;102449.56;;;5.68;79.22
22241;BME280;11289;52.524;13.694;2024-01-27T09:42:52;102445.78;;;5.74;79.40
22241;BME280;11289;52.524;13.694;2024-01-27T09:45:21;102449.97;;;5.77;79.21
22241;BME280;11289;52.524;13.694;2024-01-27T09:47:49;102451.94;;;5.81;79.74
22241;BME280;11289;52.524;13.694;2024-01-27T09:50:17;102454.75;;;5.86;79.22
22241;BME280;11289;52.524;13.694;2024-01-27T09:52:43;102458.44;;;5.92;78.84
22241;BME280;11289;52.524;13.694;2024-01-27T09:55:09;102451.50;;;5.89;78.07
22241;BME280;11289;52.524;13.694;2024-01-27T09:57:39;102460.63;;;5.90;78.05
22241;BME280;11289;52.524;13.694;2024-01-27T10:00:11;102463.19;;;5.97;78.69
22241;BME280;11289;52.524;13.694;2024-01-27T10:02:39;102464.63;;;5.99;77.72
22241;BME280;11289;52.524;13.694;2024-01-27T10:05:08;102470.22;;;6.04;78.33
22241;BME280;11289;52.524;13.694;2024-01-27T10:07:35;102464.63;;;5.99;77.00
22241;BME280;11289;52.524;13.694;2024-01-27T10:10:01;102468.81;;;6.02;77.53
22241;BME280;11289;52.524;13.694;2024-01-27T10:12:28;102469.13;;;6.05;78.08
22241;BME280;11289;52.524;13.694;2024-01-27T10:14:54;102469.47;;;6.09;77.54
22241;BME280;11289;52.524;13.694;2024-01-27T10:17:21;102483.81;;;6.11;77.57
22241;BME280;11289;52.524;13.694;2024-01-27T10:20:05;102485.22;;;6.14;77.03
22241;BME280;11289;52.524;13.694;2024-01-27T10:22:38;102487.16;;;6.13;76.92
22241;BME280;11289;52.524;13.694;2024-01-27T10:25:05;102480.53;;;6.14;76.70
22241;BME280;11289;52.524;13.694;2024-01-27T10:27:32;102479.16;;;6.12;76.50
22241;BME280;11289;52.524;13.694;2024-01-27T10:29:58;102483.03;;;6.16;76.62
22241;BME280;11289;52.524;13.694;2024-01-27T10:32:23;102474.84;;;6.21;77.27
22241;BME280;11289;52.524;13.694;2024-01-27T10:35:10;102477.44;;;6.27;76.45
22241;BME280;11289;52.524;13.694;2024-01-27T10:37:38;102480.56;;;6.36;76.99
22241;BME280;11289;52.524;13.694;2024-01-27T10:40:07;102478.19;;;6.45;76.23
22241;BME280;11289;52.524;13.694;2024-01-27T10:42:38;102490.63;;;6.48;76.00
22241;BME280;11289;52.524;13.694;2024-01-27T10:45:05;102482.59;;;6.46;75.39
22241;BME280;11289;52.524;13.694;2024-01-27T10:47:32;102491.00;;;6.56;74.55
22241;BME280;11289;52.524;13.694;2024-01-27T10:50:00;102500.06;;;6.52;74.54
22241;BME280;11289;52.524;13.694;2024-01-27T10:52:31;102489.53;;;6.49;73.88
22241;BME280;11289;52.524;13.694;2024-01-27T10:54:59;102496.22;;;6.53;74.59
22241;BME280;11289;52.524;13.694;2024-01-27T10:57:29;102507.25;;;6.53;74.10
22241;BME280;11289;52.524;13.694;2024-01-27T10:59:57;102501.16;;;6.51;73.37
22241;BME280;11289;52.524;13.694;2024-01-27T11:02:24;102500.91;;;6.52;74.10
22241;BME280;11289;52.524;13.694;2024-01-27T11:04:51;102502.56;;;6.53;73.90
22241;BME280;11289;52.524;13.694;2024-01-27T11:07:20;102517.47;;;6.52;73.27
22241;BME280;11289;52.524;13.694;2024-01-27T11:09:49;102510.84;;;6.53;73.75
22241;BME280;11289;52.524;13.694;2024-01-27T11:12:16;102515.53;;;6.53;73.46
22241;BME280;11289;52.524;13.694;2024-01-27T11:14:43;102502.78;;;6.47;73.43
22241;BME280;11289;52.524;13.694;2024-01-27T11:17:10;102503.59;;;6.47;72.81
22241;BME280;11289;52.524;13.694;2024-01-27T11:19:39;102489.75;;;6.42;73.20
22241;BME280;11289;52.524;13.694;2024-01-27T11:22:06;102517.91;;;6.44;72.93
22241;BME280;11289;52.524;13.694;2024-01-27T11:24:32;102513.47;;;6.43;73.05
22241;BME280;11289;52.524;13.694;2024-01-27T11:27:05;102511.03;;;6.47;73.06
22241;BME280;11289;52.524;13.694;2024-01-27T11:29:32;102502.81;;;6.52;73.31
22241;BME280;11289;52.524;13.694;2024-01-27T11:32:00;102511.44;;;6.55;73.45
22241;BME280;11289;52.524;13.694;2024-01-27T11:34:28;102494.53;;;6.52;73.32
22241;BME280;11289;52.524;13.694;2024-01-27T11:36:54;102516.72;;;6.62;73.71
22241;BME280;11289;52.524;13.694;2024-01-27T11:39:30;102518.16;;;6.65;73.84
22241;BME280;11289;52.524;13.694;2024-01-27T11:42:09;102529.28;;;6.70;73.36
22241;BME280;11289;52.524;13.694;2024-01-27T11:44:37;102527.91;;;6.72;73.62
22241;BME280;11289;52.524;13.694;2024-01-27T11:47:04;102536.81;;;6.79;73.34
22241;BME280;11289;52.524;13.694;2024-01-27T11:49:30;102546.25;;;6.84;73.54
22241;BME280;11289;52.524;13.694;2024-01-27T11:51:56;102534.56;;;6.76;73.07
22241;BME280;11289;52.524;13.694;2024-01-27T11:54:23;102530.09;;;6.70;72.82
22241;BME280;11289;52.524;13.694;2024-01-27T11:56:49;102539.53;;;6.74;73.08
22241;BME280;11289;52.524;13.694;2024-01-27T11:59:15;102526.25;;;6.71;73.15
22241;BME280;11289;52.524;13.694;2024-01-27T12:01:41;102537.66;;;6.80;73.55
22241;BME280;11289;52.524;13.694;2024-01-27T12:04:07;102544.00;;;6.80;72.57
22241;BME280;11289;52.524;13.694;2024-01-27T12:06:35;102551.47;;;6.80;71.44
22241;BME280;11289;52.524;13.694;2024-01-27T12:09:01;102545.09;;;6.79;72.58
22241;BME280;11289;52.524;13.694;2024-01-27T12:11:27;102537.59;;;6.75;71.29
22241;BME280;11289;52.524;13.694;2024-01-27T12:13:53;102546.91;;;6.69;72.33
22241;BME280;11289;52.524;13.694;2024-01-27T12:16:22;102557.44;;;6.72;72.43
22241;BME280;11289;52.524;13.694;2024-01-27T12:18:51;102554.13;;;6.70;72.52
22241;BME280;11289;52.524;13.694;2024-01-27T12:21:20;102565.41;;;6.68;71.98
22241;BME280;11289;52.524;13.694;2024-01-27T12:23:53;102572.06;;;6.72;72.08
22241;BME280;11289;52.524;13.694;2024-01-27T12:26:24;102577.03;;;6.70;72.57
22241;BME280;11289;52.524;13.694;2024-01-27T12:28:50;102579.47;;;6.67;72.27
22241;BME280;11289;52.524;13.694;2024-01-27T12:31:17;102575.88;;;6.66;73.15
22241;BME280;11289;52.524;13.694;2024-01-27T12:33:56;102585.00;;;6.67;72.97
22241;BME280;11289;52.524;13.694;2024-01-27T12:36:24;102588.31;;;6.69;72.75
22241;BME280;11289;52.524;13.694;2024-01-27T12:39:01;102590.00;;;6.70;72.97
22241;BME280;11289;52.524;13.694;2024-01-27T12:41:29;102585.94;;;6.77;73.85
22241;BME280;11289;52.524;13.694;2024-01-27T12:43:55;102588.78;;;6.83;73.49
22241;BME280;11289;52.524;13.694;2024-01-27T12:46:22;102592.63;;;6.82;73.10
22241;BME280;11289;52.524;13.694;2024-01-27T12:48:48;102587.38;;;6.80;73.67